sensor_id;sensor_type;location;lat;lon;timestamp;temperature;humidity
23873;DHT22;42884;50.718;4.630;2024-03-29T00:00:25;10.80;99.90
23873;DHT22;42884;50.718;4.630;2024-03-29T00:02:50;10.70;99.90
23873;DHT22;42884;50.718;4.630;2024-03-29T00:05:16;10.70;99.90
23873;DHT22;42884;50.718;4.630;2024-03-29T00:07:41;10.70;99.90
23873;DHT22;42884;50.718;4.630;2024-03-29T00:10:07;10.60;99.90
23873;DHT22;42884;50.718;4.630;2024-03-29T00:12:33;10.60;99.90
23873;DHT22;42884;50.718;4.630;2024-03-29T00:14:58;10.60;99.90
23873;DHT22;42884;50.718;4.630;2024-03-29T00:17:24;10.60;99.90
23873;DHT22;42884;50.718;4.630;2024-03-29T00:19:49;10.70;99.90
23873;DHT22;42884;50.718;4.630;2024-03-29T00:22:15;10.70;99.90
23873;DHT22;42884;50.718;4.630;2024-03-29T00:24:41;10.70;99.90
23873;DHT22;42884;50.718;4.630;2024-03-29T00:27:06;10.70;99.90
23873;DHT22;42884;50.718;4.630;2024-03-29T00:29:32;10.70;99.90
23873;DHT22;42884;50.718;4.630;2024-03-29T00:31:58;10.80;99.90
23873;DHT22;42884;50.718;4.630;2024-03-29T00:34:23;10.80;99.90
23873;DHT22;42884;50.718;4.630;2024-03-29T00:36:49;10.80;99.90
23873;DHT22;42884;50.718;4.630;2024-03-29T00:39:14;10.80;99.90
23873;DHT22;42884;50.718;4.630;2024-03-29T00:41:40;10.70;99.90
23873;DHT22;42884;50.718;4.630;2024-03-29T00:44:06;10.80;99.90
23873;DHT22;42884;50.718;4.630;2024-03-29T00:46:32;10.80;99.90
23873;DHT22;42884;50.718;4.630;2024-03-29T00:48:58;10.90;99.90
23873;DHT22;42884;50.718;4.630;2024-03-29T00:51:23;10.80;99.90
23873;DHT22;42884;50.718;4.630;2024-03-29T00:53:49;10.80;99.90
23873;DHT22;42884;50.718;4.630;2024-03-29T00:56:15;10.80;99.90
23873;DHT22;42884;50.718;4.630;2024-03-29T00:58:40;10.80;99.90
23873;DHT22;42884;50.718;4.630;2024-03-29T01:01:06;10.90;99.90
23873;DHT22;42884;50.718;4.630;2024-03-29T01:03:31;10.90;99.90
23873;DHT22;42884;50.718;4.630;2024-03-29T01:05:57;10.80;99.90
23873;DHT22;42884;50.718;4.630;2024-03-29T01:08:23;10.90;99.90
23873;DHT22;42884;50.718;4.630;2024-03-29T01:10:49;10.90;99.90
23873;DHT22;42884;50.718;4.630;2024-03-29T01:13:14;10.90;99.90
23873;DHT22;42884;50.718;4.630;2024-03-29T01:15:40;11.00;99.90
23873;DHT22;42884;50.718;4.630;2024-03-29T01:18:06;11.00;99.90
23873;DHT22;42884;50.718;4.630;2024-03-29T01:20:31;10.90;99.90
23873;DHT22;42884;50.718;4.630;2024-03-29T01:22:57;10.90;99.90
23873;DHT22;42884;50.718;4.630;2024-03-29T01:25:22;11.00;99.90
23873;DHT22;42884;50.718;4.630;2024-03-29T01:27:49;10.90;99.90
23873;DHT22;42884;50.718;4.630;2024-03-29T01:30:15;10.80;99.90
23873;DHT22;42884;50.718;4.630;2024-03-29T01:32:40;10.80;99.90
23873;DHT22;42884;50.718;4.630;2024-03-29T01:35:06;10.70;99.90
23873;DHT22;42884;50.718;4.630;2024-03-29T01:37:32;10.70;99.90
23873;DHT22;42884;50.718;4.630;2024-03-29T01:40:00;10.60;99.90
23873;DHT22;42884;50.718;4.630;2024-03-29T01:42:27;10.60;99.90
23873;DHT22;42884;50.718;4.630;2024-03-29T01:44:52;10.50;99.90
23873;DHT22;42884;50.718;4.630;2024-03-29T01:47:18;10.30;99.90
23873;DHT22;42884;50.718;4.630;2024-03-29T01:49:44;10.30;99.90
23873;DHT22;42884;50.718;4.630;2024-03-29T01:52:11;10.30;99.90
23873;DHT22;42884;50.718;4.630;2024-03-29T01:54:37;10.10;99.90
23873;DHT22;42884;50.718;4.630;2024-03-29T01:57:03;10.00;99.90
23873;DHT22;42884;50.718;4.630;2024-03-29T01:59:28;10.00;99.90
23873;DHT22;42884;50.718;4.630;2024-03-29T02:01:56;10.00;99.90
23873;DHT22;42884;50.718;4.630;2024-03-29T02:04:25;10.10;99.90
23873;DHT22;42884;50.718;4.630;2024-03-29T02:06:51;10.10;99.90
23873;DHT22;42884;50.718;4.630;2024-03-29T02:09:16;10.10;99.90
23873;DHT22;42884;50.718;4.630;2024-03-29T02:11:42;10.00;99.90
23873;DHT22;42884;50.718;4.630;2024-03-29T02:14:07;10.10;99.90
23873;DHT22;42884;50.718;4.630;2024-03-29T02:16:33;10.10;99.90
23873;DHT22;42884;50.718;4.630;2024-03-29T02:18:59;10.00;99.90
23873;DHT22;42884;50.718;4.630;2024-03-29T02:21:24;10.10;99.90
23873;DHT22;42884;50.718;4.630;2024-03-29T02:24:23;10.10;99.90
23873;DHT22;42884;50.718;4.630;2024-03-29T02:26:43;10.00;99.90
23873;DHT22;42884;50.718;4.630;2024-03-29T02:29:10;9.90;99.90
23873;DHT22;42884;50.718;4.630;2024-03-29T02:31:40;9.80;99.90
23873;DHT22;42884;50.718;4.630;2024-03-29T02:34:05;9.80;99.90
23873;DHT22;42884;50.718;4.630;2024-03-29T02:36:33;9.70;99.90
23873;DHT22;42884;50.718;4.630;2024-03-29T02:38:58;9.70;99.90
23873;DHT22;42884;50.718;4.630;2024-03-29T02:41:24;9.70;99.90
23873;DHT22;42884;50.718;4.630;2024-03-29T02:43:51;9.80;99.90
23873;DHT22;42884;50.718;4.630;2024-03-29T02:46:17;9.80;99.90
23873;DHT22;42884;50.718;4.630;2024-03-29T02:48:42;9.80;99.90
23873;DHT22;42884;50.718;4.630;2024-03-29T02:51:08;9.60;99.90
23873;DHT22;42884;50.718;4.630;2024-03-29T02:53:34;9.60;99.90
23873;DHT22;42884;50.718;4.630;2024-03-29T02:55:59;9.70;99.90
23873;DHT22;42884;50.718;4.630;2024-03-29T02:58:25;9.80;99.90
23873;DHT22;42884;50.718;4.630;2024-03-29T03:00:50;9.90;99.90
23873;DHT22;42884;50.718;4.630;2024-03-29T03:03:16;9.80;99.90
23873;DHT22;42884;50.718;4.630;2024-03-29T03:05:44;9.80;99.90
23873;DHT22;42884;50.718;4.630;2024-03-29T03:08:10;9.80;99.90
23873;DHT22;42884;50.718;4.630;2024-03-29T03:10:54;9.80;99.90
23873;DHT22;42884;50.718;4.630;2024-03-29T03:13:26;9.80;99.90
23873;DHT22;42884;50.718;4.630;2024-03-29T03:15:52;9.90;99.90
23873;DHT22;42884;50.718;4.630;2024-03-29T03:18:18;9.90;99.90
23873;DHT22;42884;50.718;4.630;2024-03-29T03:20:50;9.90;99.90
23873;DHT22;42884;50.718;4.630;2024-03-29T03:23:15;9.80;99.90
23873;DHT22;42884;50.718;4.630;2024-03-29T03:25:41;9.80;99.90
23873;DHT22;42884;50.718;4.630;2024-03-29T03:28:07;9.80;99.90
23873;DHT22;42884;50.718;4.630;2024-03-29T03:30:32;9.80;99.90
23873;DHT22;42884;50.718;4.630;2024-03-29T03:32:58;9.70;99.90
23873;DHT22;42884;50.718;4.630;2024-03-29T03:35:23;9.80;99.90
23873;DHT22;42884;50.718;4.630;2024-03-29T03:37:49;9.80;99.90
23873;DHT22;42884;50.718;4.630;2024-03-29T03:40:15;9.90;99.90
23873;DHT22;42884;50.718;4.630;2024-03-29T03:42:45;9.80;99.90
23873;DHT22;42884;50.718;4.630;2024-03-29T03:45:10;9.80;99.90
23873;DHT22;42884;50.718;4.630;2024-03-29T03:47:36;9.70;99.90
23873;DHT22;42884;50.718;4.630;2024-03-29T03:50:01;9.70;99.90
23873;DHT22;42884;50.718;4.630;2024-03-29T03:52:28;9.60;99.90
23873;DHT22;42884;50.718;4.630;2024-03-29T03:54:53;9.60;99.90
23873;DHT22;42884;50.718;4.630;2024-03-29T03:57:19;9.70;99.90
23873;DHT22;42884;50.718;4.630;2024-03-29T03:59:44;9.80;99.90
23873;DHT22;42884;50.718;4.630;2024-03-29T04:02:10;9.80;99.90
23873;DHT22;42884;50.718;4.630;2024-03-29T04:04:36;9.90;99.90
23873;DHT22;42884;50.718;4.630;2024-03-29T04:07:01;9.90;99.90
23873;DHT22;42884;50.718;4.630;2024-03-29T04:09:31;9.90;99.90
23873;DHT22;42884;50.718;4.630;2024-03-29T04:11:57;9.90;99.90
23873;DHT22;42884;50.718;4.630;2024-03-29T04:14:25;9.90;99.90
23873;DHT22;42884;50.718;4.630;2024-03-29T04:16:51;9.90;99.90
23873;DHT22;42884;50.718;4.630;2024-03-29T04:19:19;9.80;99.90
23873;DHT22;42884;50.718;4.630;2024-03-29T04:21:45;9.90;99.90
23873;DHT22;42884;50.718;4.630;2024-03-29T04:24:11;9.90;99.90
23873;DHT22;42884;50.718;4.630;2024-03-29T04:26:37;9.90;99.90
23873;DHT22;42884;50.718;4.630;2024-03-29T04:29:04;9.90;99.90
23873;DHT22;42884;50.718;4.630;2024-03-29T04:31:29;9.90;99.90
23873;DHT22;42884;50.718;4.630;2024-03-29T04:33:55;9.90;99.90
23873;DHT22;42884;50.718;4.630;2024-03-29T04:36:20;9.90;99.90
23873;DHT22;42884;50.718;4.630;2024-03-29T04:38:46;9.90;99.90
23873;DHT22;42884;50.718;4.630;2024-03-29T04:41:12;9.90;99.90
23873;DHT22;42884;50.718;4.630;2024-03-29T04:43:39;9.90;99.90
23873;DHT22;42884;50.718;4.630;2024-03-29T04:46:12;9.90;99.90
23873;DHT22;42884;50.718;4.630;2024-03-29T04:48:39;9.90;99.90
23873;DHT22;42884;50.718;4.630;2024-03-29T04:51:05;9.90;99.90
23873;DHT22;42884;50.718;4.630;2024-03-29T04:53:34;9.90;99.90
23873;DHT22;42884;50.718;4.630;2024-03-29T04:56:00;9.90;99.90
23873;DHT22;42884;50.718;4.630;2024-03-29T04:58:25;9.90;99.90
23873;DHT22;42884;50.718;4.630;2024-03-29T05:00:52;9.90;99.90
23873;DHT22;42884;50.718;4.630;2024-03-29T05:03:17;9.90;99.90
23873;DHT22;42884;50.718;4.630;2024-03-29T05:05:44;9.90;99.90
23873;DHT22;42884;50.718;4.630;2024-03-29T05:08:10;9.80;99.90
23873;DHT22;42884;50.718;4.630;2024-03-29T05:10:35;9.80;99.90
23873;DHT22;42884;50.718;4.630;2024-03-29T05:13:01;9.80;99.90
23873;DHT22;42884;50.718;4.630;2024-03-29T05:15:27;9.80;99.90
23873;DHT22;42884;50.718;4.630;2024-03-29T05:17:52;9.80;99.90
23873;DHT22;42884;50.718;4.630;2024-03-29T05:20:21;9.90;99.90
23873;DHT22;42884;50.718;4.630;2024-03-29T05:22:47;9.80;99.90
23873;DHT22;42884;50.718;4.630;2024-03-29T05:25:12;9.90;99.90
23873;DHT22;42884;50.718;4.630;2024-03-29T05:27:38;9.90;99.90
23873;DHT22;42884;50.718;4.630;2024-03-29T05:30:04;9.90;99.90
23873;DHT22;42884;50.718;4.630;2024-03-29T05:32:30;9.90;99.90
23873;DHT22;42884;50.718;4.630;2024-03-29T05:34:58;9.80;99.90
23873;DHT22;42884;50.718;4.630;2024-03-29T05:37:24;9.80;99.90
23873;DHT22;42884;50.718;4.630;2024-03-29T05:39:53;9.80;99.90
23873;DHT22;42884;50.718;4.630;2024-03-29T05:42:31;9.70;99.90
23873;DHT22;42884;50.718;4.630;2024-03-29T05:44:57;9.80;99.90
23873;DHT22;42884;50.718;4.630;2024-03-29T05:47:23;9.80;99.90
23873;DHT22;42884;50.718;4.630;2024-03-29T05:49:49;9.80;99.90
23873;DHT22;42884;50.718;4.630;2024-03-29T05:52:15;9.90;99.90
23873;DHT22;42884;50.718;4.630;2024-03-29T05:54:46;9.90;99.90
23873;DHT22;42884;50.718;4.630;2024-03-29T05:57:15;9.90;99.90
23873;DHT22;42884;50.718;4.630;2024-03-29T05:59:43;9.90;99.90
23873;DHT22;42884;50.718;4.630;2024-03-29T06:02:09;9.80;99.90
23873;DHT22;42884;50.718;4.630;2024-03-29T06:04:35;9.90;99.90
23873;DHT22;42884;50.718;4.630;2024-03-29T06:07:03;10.00;99.90
23873;DHT22;42884;50.718;4.630;2024-03-29T06:09:29;10.00;99.90
23873;DHT22;42884;50.718;4.630;2024-03-29T06:12:15;10.00;99.90
23873;DHT22;42884;50.718;4.630;2024-03-29T06:14:40;10.00;99.90
23873;DHT22;42884;50.718;4.630;2024-03-29T06:17:25;10.00;99.90
23873;DHT22;42884;50.718;4.630;2024-03-29T06:19:51;10.00;99.90
23873;DHT22;42884;50.718;4.630;2024-03-29T06:22:19;10.00;99.90
23873;DHT22;42884;50.718;4.630;2024-03-29T06:24:45;10.10;99.90
23873;DHT22;42884;50.718;4.630;2024-03-29T06:27:12;10.10;99.90
23873;DHT22;42884;50.718;4.630;2024-03-29T06:29:38;10.10;99.90
23873;DHT22;42884;50.718;4.630;2024-03-29T06:32:04;10.10;99.90
23873;DHT22;42884;50.718;4.630;2024-03-29T06:34:34;10.20;99.90
23873;DHT22;42884;50.718;4.630;2024-03-29T06:36:59;10.20;99.90
23873;DHT22;42884;50.718;4.630;2024-03-29T06:39:27;10.30;99.90
23873;DHT22;42884;50.718;4.630;2024-03-29T06:41:53;10.30;99.90
23873;DHT22;42884;50.718;4.630;2024-03-29T06:44:19;10.30;99.90
23873;DHT22;42884;50.718;4.630;2024-03-29T06:46:45;10.40;99.90
23873;DHT22;42884;50.718;4.630;2024-03-29T06:49:11;10.40;99.90
23873;DHT22;42884;50.718;4.630;2024-03-29T06:51:38;10.50;99.90
23873;DHT22;42884;50.718;4.630;2024-03-29T06:54:04;10.50;99.90
23873;DHT22;42884;50.718;4.630;2024-03-29T06:56:29;10.50;99.90
23873;DHT22;42884;50.718;4.630;2024-03-29T06:58:55;10.50;99.90
23873;DHT22;42884;50.718;4.630;2024-03-29T07:01:21;10.50;99.90
23873;DHT22;42884;50.718;4.630;2024-03-29T07:03:47;10.60;99.90
23873;DHT22;42884;50.718;4.630;2024-03-29T07:06:12;10.50;99.90
23873;DHT22;42884;50.718;4.630;2024-03-29T07:08:39;10.50;99.90
23873;DHT22;42884;50.718;4.630;2024-03-29T07:11:05;10.60;99.90
23873;DHT22;42884;50.718;4.630;2024-03-29T07:13:30;10.40;99.90
23873;DHT22;42884;50.718;4.630;2024-03-29T07:15:59;10.40;99.90
23873;DHT22;42884;50.718;4.630;2024-03-29T07:18:25;10.60;99.90
23873;DHT22;42884;50.718;4.630;2024-03-29T07:20:51;10.70;99.90
23873;DHT22;42884;50.718;4.630;2024-03-29T07:23:16;10.80;99.90
23873;DHT22;42884;50.718;4.630;2024-03-29T07:25:45;10.80;99.90
23873;DHT22;42884;50.718;4.630;2024-03-29T07:28:11;10.80;99.90
23873;DHT22;42884;50.718;4.630;2024-03-29T07:30:42;10.80;99.90
23873;DHT22;42884;50.718;4.630;2024-03-29T07:33:09;10.80;99.90
23873;DHT22;42884;50.718;4.630;2024-03-29T07:35:36;10.80;99.90
23873;DHT22;42884;50.718;4.630;2024-03-29T07:38:06;11.00;99.90
23873;DHT22;42884;50.718;4.630;2024-03-29T07:40:35;10.90;99.90
23873;DHT22;42884;50.718;4.630;2024-03-29T07:43:01;10.90;99.90
23873;DHT22;42884;50.718;4.630;2024-03-29T07:45:29;11.00;99.90
23873;DHT22;42884;50.718;4.630;2024-03-29T07:47:59;10.80;99.90
23873;DHT22;42884;50.718;4.630;2024-03-29T07:50:30;10.90;99.90
23873;DHT22;42884;50.718;4.630;2024-03-29T07:52:58;10.90;99.90
23873;DHT22;42884;50.718;4.630;2024-03-29T07:55:29;10.90;99.90
23873;DHT22;42884;50.718;4.630;2024-03-29T07:57:57;11.00;99.90
23873;DHT22;42884;50.718;4.630;2024-03-29T08:00:24;10.90;99.90
23873;DHT22;42884;50.718;4.630;2024-03-29T08:02:53;11.10;99.90
23873;DHT22;42884;50.718;4.630;2024-03-29T08:05:20;11.10;99.90
23873;DHT22;42884;50.718;4.630;2024-03-29T08:07:46;11.10;99.90
23873;DHT22;42884;50.718;4.630;2024-03-29T08:10:11;11.10;99.90
23873;DHT22;42884;50.718;4.630;2024-03-29T08:12:37;11.20;99.90
23873;DHT22;42884;50.718;4.630;2024-03-29T08:15:03;11.20;99.90
23873;DHT22;42884;50.718;4.630;2024-03-29T08:17:29;11.20;99.90
23873;DHT22;42884;50.718;4.630;2024-03-29T08:19:54;11.20;99.90
23873;DHT22;42884;50.718;4.630;2024-03-29T08:22:23;11.30;99.90
23873;DHT22;42884;50.718;4.630;2024-03-29T08:24:48;11.30;99.90
23873;DHT22;42884;50.718;4.630;2024-03-29T08:27:14;11.30;99.90
23873;DHT22;42884;50.718;4.630;2024-03-29T08:29:43;11.40;99.90
23873;DHT22;42884;50.718;4.630;2024-03-29T08:32:09;11.60;99.90
23873;DHT22;42884;50.718;4.630;2024-03-29T08:34:36;11.50;99.90
23873;DHT22;42884;50.718;4.630;2024-03-29T08:37:02;11.50;99.90
23873;DHT22;42884;50.718;4.630;2024-03-29T08:39:32;11.60;99.90
23873;DHT22;42884;50.718;4.630;2024-03-29T08:41:58;11.70;99.90
23873;DHT22;42884;50.718;4.630;2024-03-29T08:44:24;11.70;99.90
23873;DHT22;42884;50.718;4.630;2024-03-29T08:46:50;11.80;99.90
23873;DHT22;42884;50.718;4.630;2024-03-29T08:49:16;11.90;99.90
23873;DHT22;42884;50.718;4.630;2024-03-29T08:51:42;12.00;99.90
23873;DHT22;42884;50.718;4.630;2024-03-29T08:54:07;12.20;99.90
23873;DHT22;42884;50.718;4.630;2024-03-29T08:56:33;12.30;99.90
23873;DHT22;42884;50.718;4.630;2024-03-29T08:59:05;12.50;99.90
23873;DHT22;42884;50.718;4.630;2024-03-29T09:01:38;12.60;99.90
23873;DHT22;42884;50.718;4.630;2024-03-29T09:04:07;12.70;99.90
23873;DHT22;42884;50.718;4.630;2024-03-29T09:06:39;12.70;99.90
23873;DHT22;42884;50.718;4.630;2024-03-29T09:09:08;12.80;99.90
23873;DHT22;42884;50.718;4.630;2024-03-29T09:11:34;12.90;99.90
23873;DHT22;42884;50.718;4.630;2024-03-29T09:13:59;12.90;99.90
23873;DHT22;42884;50.718;4.630;2024-03-29T09:16:26;12.90;99.90
23873;DHT22;42884;50.718;4.630;2024-03-29T09:18:55;12.90;99.90
23873;DHT22;42884;50.718;4.630;2024-03-29T09:21:21;13.20;99.90
23873;DHT22;42884;50.718;4.630;2024-03-29T09:23:46;13.30;99.90
23873;DHT22;42884;50.718;4.630;2024-03-29T09:26:14;13.50;99.90
23873;DHT22;42884;50.718;4.630;2024-03-29T09:28:40;13.60;99.90
23873;DHT22;42884;50.718;4.630;2024-03-29T09:31:08;13.50;99.90
23873;DHT22;42884;50.718;4.630;2024-03-29T09:33:35;13.70;99.90
23873;DHT22;42884;50.718;4.630;2024-03-29T09:36:03;13.70;99.90
23873;DHT22;42884;50.718;4.630;2024-03-29T09:38:33;13.90;99.90
23873;DHT22;42884;50.718;4.630;2024-03-29T09:41:15;14.10;99.90
23873;DHT22;42884;50.718;4.630;2024-03-29T09:43:41;14.30;99.90
23873;DHT22;42884;50.718;4.630;2024-03-29T09:46:08;14.60;99.90
23873;DHT22;42884;50.718;4.630;2024-03-29T09:48:34;14.50;99.90
23873;DHT22;42884;50.718;4.630;2024-03-29T09:51:05;14.60;99.90
23873;DHT22;42884;50.718;4.630;2024-03-29T09:53:35;14.60;99.90
23873;DHT22;42884;50.718;4.630;2024-03-29T09:56:03;14.30;99.90
23873;DHT22;42884;50.718;4.630;2024-03-29T09:58:31;14.10;99.90
23873;DHT22;42884;50.718;4.630;2024-03-29T10:00:57;13.90;99.90
23873;DHT22;42884;50.718;4.630;2024-03-29T10:03:25;13.80;99.90
23873;DHT22;42884;50.718;4.630;2024-03-29T10:05:58;13.80;99.90
23873;DHT22;42884;50.718;4.630;2024-03-29T10:08:27;14.10;99.90
23873;DHT22;42884;50.718;4.630;2024-03-29T10:10:56;14.20;99.90
23873;DHT22;42884;50.718;4.630;2024-03-29T10:13:22;14.40;99.90
23873;DHT22;42884;50.718;4.630;2024-03-29T10:15:51;14.50;99.90
23873;DHT22;42884;50.718;4.630;2024-03-29T10:18:28;14.80;99.90
23873;DHT22;42884;50.718;4.630;2024-03-29T10:21:06;15.00;99.90
23873;DHT22;42884;50.718;4.630;2024-03-29T10:23:32;15.00;99.90
23873;DHT22;42884;50.718;4.630;2024-03-29T10:25:59;15.20;99.90
23873;DHT22;42884;50.718;4.630;2024-03-29T10:28:31;15.20;99.90
23873;DHT22;42884;50.718;4.630;2024-03-29T10:30:58;14.90;99.90
23873;DHT22;42884;50.718;4.630;2024-03-29T10:33:31;14.90;99.90
23873;DHT22;42884;50.718;4.630;2024-03-29T10:35:58;15.00;99.90
23873;DHT22;42884;50.718;4.630;2024-03-29T10:38:25;15.10;99.90
23873;DHT22;42884;50.718;4.630;2024-03-29T10:40:53;15.00;99.90
23873;DHT22;42884;50.718;4.630;2024-03-29T10:43:23;15.00;99.90
23873;DHT22;42884;50.718;4.630;2024-03-29T10:45:50;14.80;99.90
23873;DHT22;42884;50.718;4.630;2024-03-29T10:48:20;14.90;99.90
23873;DHT22;42884;50.718;4.630;2024-03-29T10:50:48;15.00;99.90
23873;DHT22;42884;50.718;4.630;2024-03-29T10:53:17;15.00;99.90
23873;DHT22;42884;50.718;4.630;2024-03-29T10:55:46;14.90;99.90
23873;DHT22;42884;50.718;4.630;2024-03-29T10:58:12;15.00;99.90
23873;DHT22;42884;50.718;4.630;2024-03-29T11:00:45;15.00;99.90
23873;DHT22;42884;50.718;4.630;2024-03-29T11:05:57;15.10;99.90
23873;DHT22;42884;50.718;4.630;2024-03-29T11:08:26;15.00;99.90
23873;DHT22;42884;50.718;4.630;2024-03-29T11:10:54;15.00;99.90
23873;DHT22;42884;50.718;4.630;2024-03-29T11:15:50;15.30;99.90
23873;DHT22;42884;50.718;4.630;2024-03-29T11:18:15;15.20;99.90
23873;DHT22;42884;50.718;4.630;2024-03-29T11:20:44;15.20;99.90
23873;DHT22;42884;50.718;4.630;2024-03-29T11:23:15;15.20;99.90
23873;DHT22;42884;50.718;4.630;2024-03-29T11:28:14;15.20;99.90
23873;DHT22;42884;50.718;4.630;2024-03-29T11:30:45;15.20;99.90
23873;DHT22;42884;50.718;4.630;2024-03-29T11:36:09;15.60;99.90
23873;DHT22;42884;50.718;4.630;2024-03-29T11:38:36;15.70;99.90
23873;DHT22;42884;50.718;4.630;2024-03-29T11:41:02;16.10;99.90
23873;DHT22;42884;50.718;4.630;2024-03-29T11:43:32;16.40;99.90
23873;DHT22;42884;50.718;4.630;2024-03-29T11:45:58;16.60;99.90
23873;DHT22;42884;50.718;4.630;2024-03-29T11:48:26;16.60;99.90
23873;DHT22;42884;50.718;4.630;2024-03-29T11:50:56;16.90;99.90
23873;DHT22;42884;50.718;4.630;2024-03-29T11:53:22;16.80;99.90
23873;DHT22;42884;50.718;4.630;2024-03-29T11:55:48;16.90;99.90
23873;DHT22;42884;50.718;4.630;2024-03-29T11:58:21;17.20;99.90
23873;DHT22;42884;50.718;4.630;2024-03-29T12:00:47;17.50;99.90
23873;DHT22;42884;50.718;4.630;2024-03-29T12:03:16;17.60;99.90
23873;DHT22;42884;50.718;4.630;2024-03-29T12:05:47;18.00;99.90
23873;DHT22;42884;50.718;4.630;2024-03-29T12:08:14;18.30;99.90
23873;DHT22;42884;50.718;4.630;2024-03-29T12:10:43;19.00;99.90
23873;DHT22;42884;50.718;4.630;2024-03-29T12:13:11;19.30;99.90
23873;DHT22;42884;50.718;4.630;2024-03-29T12:15:37;19.10;99.90
23873;DHT22;42884;50.718;4.630;2024-03-29T12:18:06;18.50;99.90
23873;DHT22;42884;50.718;4.630;2024-03-29T12:20:37;18.80;99.90
23873;DHT22;42884;50.718;4.630;2024-03-29T12:23:03;18.80;99.90
23873;DHT22;42884;50.718;4.630;2024-03-29T12:25:29;18.80;99.90
23873;DHT22;42884;50.718;4.630;2024-03-29T12:27:55;18.50;99.90
23873;DHT22;42884;50.718;4.630;2024-03-29T12:30:24;18.80;99.90
23873;DHT22;42884;50.718;4.630;2024-03-29T12:33:06;18.80;99.90
23873;DHT22;42884;50.718;4.630;2024-03-29T12:35:32;18.60;99.90
23873;DHT22;42884;50.718;4.630;2024-03-29T12:38:00;18.60;99.90
23873;DHT22;42884;50.718;4.630;2024-03-29T12:40:27;18.90;99.90
23873;DHT22;42884;50.718;4.630;2024-03-29T12:43:02;19.10;99.90
23873;DHT22;42884;50.718;4.630;2024-03-29T12:45:28;19.10;99.90
23873;DHT22;42884;50.718;4.630;2024-03-29T12:47:57;18.80;99.90
23873;DHT22;42884;50.718;4.630;2024-03-29T12:52:48;18.00;99.90
23873;DHT22;42884;50.718;4.630;2024-03-29T12:55:13;17.60;99.90
23873;DHT22;42884;50.718;4.630;2024-03-29T12:57:43;17.50;99.90
23873;DHT22;42884;50.718;4.630;2024-03-29T13:00:10;17.80;99.90
23873;DHT22;42884;50.718;4.630;2024-03-29T13:02:41;18.10;99.90
23873;DHT22;42884;50.718;4.630;2024-03-29T13:05:07;18.30;99.90
23873;DHT22;42884;50.718;4.630;2024-03-29T13:07:33;18.50;99.90
23873;DHT22;42884;50.718;4.630;2024-03-29T13:10:03;19.20;99.90
23873;DHT22;42884;50.718;4.630;2024-03-29T13:12:39;19.70;99.90
23873;DHT22;42884;50.718;4.630;2024-03-29T13:15:14;20.20;99.90
23873;DHT22;42884;50.718;4.630;2024-03-29T13:17:40;20.50;99.90
23873;DHT22;42884;50.718;4.630;2024-03-29T13:20:06;21.00;99.90
23873;DHT22;42884;50.718;4.630;2024-03-29T13:22:32;21.00;99.90
23873;DHT22;42884;50.718;4.630;2024-03-29T13:24:57;20.70;99.90
23873;DHT22;42884;50.718;4.630;2024-03-29T13:27:23;20.60;99.90
23873;DHT22;42884;50.718;4.630;2024-03-29T13:29:48;20.40;99.90
23873;DHT22;42884;50.718;4.630;2024-03-29T13:32:14;20.40;99.90
23873;DHT22;42884;50.718;4.630;2024-03-29T13:34:40;20.10;99.90
23873;DHT22;42884;50.718;4.630;2024-03-29T13:37:06;20.20;99.90
23873;DHT22;42884;50.718;4.630;2024-03-29T13:39:37;20.10;99.90
23873;DHT22;42884;50.718;4.630;2024-03-29T13:42:02;20.00;99.90
23873;DHT22;42884;50.718;4.630;2024-03-29T13:44:32;19.20;99.90
23873;DHT22;42884;50.718;4.630;2024-03-29T13:46:59;19.10;99.90
23873;DHT22;42884;50.718;4.630;2024-03-29T13:49:29;18.90;99.90
23873;DHT22;42884;50.718;4.630;2024-03-29T13:51:55;18.80;99.90
23873;DHT22;42884;50.718;4.630;2024-03-29T13:54:21;18.50;99.90
23873;DHT22;42884;50.718;4.630;2024-03-29T13:56:50;18.30;99.90
23873;DHT22;42884;50.718;4.630;2024-03-29T13:59:18;17.80;99.90
23873;DHT22;42884;50.718;4.630;2024-03-29T14:01:43;17.50;99.90
23873;DHT22;42884;50.718;4.630;2024-03-29T14:04:12;17.40;99.90
23873;DHT22;42884;50.718;4.630;2024-03-29T14:06:42;17.20;99.90
23873;DHT22;42884;50.718;4.630;2024-03-29T14:09:08;17.30;99.90
23873;DHT22;42884;50.718;4.630;2024-03-29T14:11:33;17.40;99.90
23873;DHT22;42884;50.718;4.630;2024-03-29T14:13:59;17.50;99.90
23873;DHT22;42884;50.718;4.630;2024-03-29T14:16:24;17.60;99.90
23873;DHT22;42884;50.718;4.630;2024-03-29T14:18:50;17.60;99.90
23873;DHT22;42884;50.718;4.630;2024-03-29T14:21:15;17.60;99.90
23873;DHT22;42884;50.718;4.630;2024-03-29T14:23:41;17.60;99.90
23873;DHT22;42884;50.718;4.630;2024-03-29T14:26:07;17.50;99.90
23873;DHT22;42884;50.718;4.630;2024-03-29T14:31:11;17.20;99.90
23873;DHT22;42884;50.718;4.630;2024-03-29T14:33:36;17.10;99.90
23873;DHT22;42884;50.718;4.630;2024-03-29T14:36:02;17.00;99.90
23873;DHT22;42884;50.718;4.630;2024-03-29T14:38:28;16.80;99.90
23873;DHT22;42884;50.718;4.630;2024-03-29T14:40:55;16.70;99.90
23873;DHT22;42884;50.718;4.630;2024-03-29T14:43:20;16.80;99.90
23873;DHT22;42884;50.718;4.630;2024-03-29T14:45:46;16.80;99.90
23873;DHT22;42884;50.718;4.630;2024-03-29T14:48:17;16.80;99.90
23873;DHT22;42884;50.718;4.630;2024-03-29T14:50:43;16.90;99.90
23873;DHT22;42884;50.718;4.630;2024-03-29T14:53:09;17.10;99.90
23873;DHT22;42884;50.718;4.630;2024-03-29T14:55:35;17.30;99.90
23873;DHT22;42884;50.718;4.630;2024-03-29T14:58:07;17.40;99.90
23873;DHT22;42884;50.718;4.630;2024-03-29T15:00:33;17.60;99.90
23873;DHT22;42884;50.718;4.630;2024-03-29T15:02:59;17.70;99.90
23873;DHT22;42884;50.718;4.630;2024-03-29T15:05:24;18.20;99.90
23873;DHT22;42884;50.718;4.630;2024-03-29T15:07:52;18.50;99.90
23873;DHT22;42884;50.718;4.630;2024-03-29T15:10:17;18.60;99.90
23873;DHT22;42884;50.718;4.630;2024-03-29T15:12:44;18.40;99.90
23873;DHT22;42884;50.718;4.630;2024-03-29T15:15:11;18.40;99.90
23873;DHT22;42884;50.718;4.630;2024-03-29T15:17:37;18.40;99.90
23873;DHT22;42884;50.718;4.630;2024-03-29T15:20:03;18.40;99.90
23873;DHT22;42884;50.718;4.630;2024-03-29T15:22:35;18.30;99.90
23873;DHT22;42884;50.718;4.630;2024-03-29T15:25:00;18.00;99.90
23873;DHT22;42884;50.718;4.630;2024-03-29T15:27:26;17.60;99.90
23873;DHT22;42884;50.718;4.630;2024-03-29T15:30:12;17.50;99.90
23873;DHT22;42884;50.718;4.630;2024-03-29T15:32:38;17.30;99.90
23873;DHT22;42884;50.718;4.630;2024-03-29T15:35:03;17.10;99.90
23873;DHT22;42884;50.718;4.630;2024-03-29T15:37:29;17.10;99.90
23873;DHT22;42884;50.718;4.630;2024-03-29T15:39:55;17.40;99.90
23873;DHT22;42884;50.718;4.630;2024-03-29T15:42:21;17.40;99.90
23873;DHT22;42884;50.718;4.630;2024-03-29T15:44:47;17.40;99.90
23873;DHT22;42884;50.718;4.630;2024-03-29T15:47:13;17.30;99.90
23873;DHT22;42884;50.718;4.630;2024-03-29T15:49:40;17.10;99.90